首页
METAR-TAF:

METAR-TAF

机场 :

英迪拉·甘地国际机场

新德里, 印度

纬度: 28-34N, 经度: 077-07E, 海拔: 220米

当前天气观测

该预报发布于35分钟前的07:30 UTC
风速10节,风向
温度 43°C
湿度 10%
气压 1005 hPa
能見度: 3000
浮尘

METAR: VIDP 220730Z 36010KT 3000 DU NSC 43/05 Q1005 NOSIG

时间: 13:35 (08:05 UTC)

预报

该预报发布于3小时和5分钟前的05:00 UTC
预报有效从22日的 06点(UTC)到 23日的 12点(UTC)
风速6节,风向西转西北
能見度: 3000
成为
从 22日的 10点(UTC)到 22日的 12点(UTC)
风速8节,风向西北,有时为18节阵风
能見度: 5000
少量云层高于4000英尺
浮尘
成为
从 22日的 18点(UTC)到 22日的 20点(UTC)
风速5节,风向西北
能見度: 3000
成为
从 23日的 05点(UTC)到 23日的 07点(UTC)
风速8节,风向
能見度: 5000
少量云层高于4000英尺
散云层高于10000英尺
霾, 浮尘

TAF: VIDP 220500Z 2206/2312 29006KT 3000 HZ NSC BECMG 2210/2212 32008G18KT 5000 DU FEW040 BECMG 2218/2220 32005KT 3000 HZ NSC BECMG 2305/2307 35008KT 5000 HZ DU FEW040 SCT100

超过4000个机场的气象观测和天气预报(METAR&TAF报告)。

可查询的气象台以黄色和红色小点在地图上表示。

将鼠标移到小点上方,可查看气象台名称。

然后点击查看天气观测和预报。

如需切换地图:点击带黑十字的绿色按钮放大地图;点击带横线的绿色按钮缩小地图;或者点击绿色箭头查看邻近地区的地图。


METAR-TAF: